createdAt,value
2022-07-30T00:01:29.217Z,21.07
2022-07-30T00:04:00.860Z,20.99
2022-07-30T00:06:32.964Z,20.87
2022-07-30T00:09:07.339Z,20.88
2022-07-30T00:11:38.839Z,20.91
2022-07-30T00:14:10.759Z,20.92
2022-07-30T00:16:42.452Z,20.89
2022-07-30T00:19:14.149Z,20.94
2022-07-30T00:21:47.172Z,20.96
2022-07-30T00:24:19.552Z,20.96
2022-07-30T00:26:53.174Z,20.96
2022-07-30T00:29:25.548Z,20.91
2022-07-30T00:31:57.155Z,20.95
2022-07-30T00:34:28.724Z,20.94
2022-07-30T00:37:01.025Z,20.95
2022-07-30T00:39:33.164Z,20.85
2022-07-30T00:42:04.948Z,20.83
2022-07-30T00:44:36.581Z,20.82
2022-07-30T00:47:12.823Z,20.82
2022-07-30T00:49:44.716Z,20.81
2022-07-30T00:52:16.337Z,20.81
2022-07-30T00:54:48.077Z,20.79
2022-07-30T00:57:19.698Z,20.79
2022-07-30T00:59:51.385Z,20.80
2022-07-30T01:02:23.235Z,20.83
2022-07-30T01:04:54.937Z,20.82
2022-07-30T01:07:27.251Z,20.79
2022-07-30T01:09:58.990Z,20.68
2022-07-30T01:12:33.514Z,20.66
2022-07-30T01:15:08.258Z,20.67
2022-07-30T01:17:43.670Z,20.67
2022-07-30T01:20:20.903Z,20.66
2022-07-30T01:22:52.632Z,20.65
2022-07-30T01:25:46.042Z,20.63
2022-07-30T01:28:22.256Z,20.59
2022-07-30T01:30:56.429Z,20.61
2022-07-30T01:33:30.721Z,20.63
2022-07-30T01:36:08.208Z,20.64
2022-07-30T01:38:46.460Z,20.63
2022-07-30T01:41:19.455Z,20.64
2022-07-30T01:43:52.269Z,20.66
2022-07-30T01:46:25.227Z,20.69
2022-07-30T01:48:59.259Z,20.68
2022-07-30T01:51:37.676Z,20.66
2022-07-30T01:54:12.695Z,20.65
2022-07-30T01:56:47.807Z,20.63
2022-07-30T01:59:21.272Z,20.61
2022-07-30T02:01:56.237Z,20.62
2022-07-30T02:04:28.242Z,20.61
2022-07-30T02:07:30.524Z,20.61
2022-07-30T02:10:11.786Z,20.65
2022-07-30T02:12:52.850Z,20.65
2022-07-30T02:15:30.262Z,20.65
2022-07-30T02:18:02.864Z,20.67
2022-07-30T02:20:38.482Z,20.72
2022-07-30T02:23:12.720Z,20.71
2022-07-30T02:25:49.118Z,20.68
2022-07-30T02:28:23.252Z,20.69
2022-07-30T02:30:59.302Z,20.69
2022-07-30T02:33:36.705Z,20.61
2022-07-30T02:36:16.813Z,20.59
2022-07-30T02:38:53.294Z,20.59
2022-07-30T02:41:28.486Z,20.58
2022-07-30T02:44:04.473Z,20.61
2022-07-30T02:46:38.037Z,20.56
2022-07-30T02:49:35.907Z,20.41
2022-07-30T02:52:13.570Z,20.33
2022-07-30T02:54:47.842Z,20.30
2022-07-30T02:57:21.216Z,20.31
2022-07-30T02:59:57.159Z,20.33
2022-07-30T03:02:34.188Z,20.34
2022-07-30T03:05:09.865Z,20.28
2022-07-30T03:07:42.798Z,20.22
2022-07-30T03:10:16.145Z,20.24
2022-07-30T03:12:50.037Z,20.20
2022-07-30T03:15:21.863Z,20.15
2022-07-30T03:17:55.498Z,20.21
2022-07-30T03:20:31.722Z,20.22
2022-07-30T03:23:05.442Z,20.24
2022-07-30T03:25:40.021Z,20.29
2022-07-30T03:28:14.117Z,20.34
2022-07-30T03:30:46.169Z,20.37
2022-07-30T03:33:19.818Z,20.37
2022-07-30T03:35:52.810Z,20.36
2022-07-30T03:38:28.188Z,20.37
2022-07-30T03:41:00.926Z,20.35
2022-07-30T03:43:34.191Z,20.36
2022-07-30T03:46:09.582Z,20.39
2022-07-30T03:48:46.252Z,20.40
2022-07-30T03:51:18.326Z,20.45
2022-07-30T03:53:52.734Z,20.47
2022-07-30T03:56:55.173Z,20.40
2022-07-30T03:59:45.326Z,20.38
2022-07-30T04:02:17.488Z,20.38
2022-07-30T04:05:23.413Z,20.29
2022-07-30T04:07:58.445Z,20.24
2022-07-30T04:10:32.672Z,20.25
2022-07-30T04:13:09.191Z,20.23
2022-07-30T04:16:41.328Z,20.28
2022-07-30T04:19:02.564Z,20.23
2022-07-30T04:21:42.736Z,20.28
2022-07-30T04:24:18.085Z,20.35
2022-07-30T04:26:52.198Z,20.33
2022-07-30T04:29:25.818Z,20.30
2022-07-30T04:31:59.369Z,20.28
2022-07-30T04:34:51.455Z,20.32
2022-07-30T04:37:31.898Z,20.27
2022-07-30T04:40:04.358Z,20.26
2022-07-30T04:42:36.091Z,20.31
2022-07-30T04:45:14.953Z,20.32
2022-07-30T04:48:02.042Z,20.34
2022-07-30T04:50:57.497Z,20.27
2022-07-30T04:53:29.665Z,20.33
2022-07-30T04:56:06.865Z,20.40
2022-07-30T04:58:41.378Z,20.44
2022-07-30T05:01:22.116Z,20.39
2022-07-30T05:03:54.381Z,20.31
2022-07-30T05:06:27.242Z,20.30
2022-07-30T05:09:02.451Z,20.34
2022-07-30T05:11:34.459Z,20.37
2022-07-30T05:14:06.697Z,20.35
2022-07-30T05:16:41.181Z,20.35
2022-07-30T05:19:13.273Z,20.34
2022-07-30T05:21:45.393Z,20.33
2022-07-30T05:24:18.071Z,20.31
2022-07-30T05:27:00.424Z,20.25
2022-07-30T05:29:33.213Z,20.24
2022-07-30T05:32:15.779Z,20.24
2022-07-30T05:34:50.093Z,20.25
2022-07-30T05:37:26.455Z,20.27
2022-07-30T05:40:03.311Z,20.27
2022-07-30T05:42:56.933Z,20.29
2022-07-30T05:45:28.760Z,20.31
2022-07-30T05:48:02.065Z,20.28
2022-07-30T05:50:34.773Z,20.18
2022-07-30T05:53:06.389Z,20.19
2022-07-30T05:56:01.087Z,20.19
2022-07-30T05:58:58.673Z,20.19
2022-07-30T06:02:08.697Z,20.16
2022-07-30T06:05:06.744Z,20.12
2022-07-30T06:07:43.186Z,20.12
2022-07-30T06:10:18.045Z,20.15
2022-07-30T06:12:49.710Z,20.11
2022-07-30T06:15:26.226Z,20.05
2022-07-30T06:18:02.270Z,19.99
2022-07-30T06:20:49.569Z,20.01
2022-07-30T06:23:30.694Z,20.07
2022-07-30T06:26:23.419Z,20.13
2022-07-30T06:28:55.606Z,20.21
2022-07-30T06:31:34.277Z,20.21
2022-07-30T06:34:06.229Z,20.25
2022-07-30T06:36:45.719Z,20.28
2022-07-30T06:39:55.956Z,20.28
2022-07-30T06:42:26.534Z,20.30
2022-07-30T06:45:26.873Z,20.27
2022-07-30T06:48:18.448Z,20.25
2022-07-30T06:50:52.796Z,20.29
2022-07-30T06:53:24.993Z,20.31
2022-07-30T06:56:22.381Z,20.36
2022-07-30T06:58:59.751Z,20.44
2022-07-30T07:01:50.582Z,20.49
2022-07-30T07:04:23.088Z,20.52
2022-07-30T07:06:55.048Z,20.49
2022-07-30T07:09:33.405Z,20.49
2022-07-30T07:12:33.720Z,20.52
2022-07-30T07:15:08.914Z,20.50
2022-07-30T07:17:43.624Z,20.51
2022-07-30T07:20:43.443Z,20.54
2022-07-30T07:23:16.084Z,20.63
2022-07-30T07:25:55.743Z,20.68
2022-07-30T07:28:33.239Z,20.71
2022-07-30T07:31:07.039Z,20.69
2022-07-30T07:33:41.579Z,20.72
2022-07-30T07:36:15.537Z,20.80
2022-07-30T07:38:48.342Z,20.77
2022-07-30T07:41:20.731Z,20.70
2022-07-30T07:43:52.365Z,20.67
2022-07-30T07:46:33.761Z,20.74
2022-07-30T07:49:07.212Z,20.80
2022-07-30T07:51:48.246Z,20.83
2022-07-30T07:54:23.443Z,20.84
2022-07-30T07:56:57.857Z,20.81
2022-07-30T07:59:42.470Z,20.73
2022-07-30T08:02:19.976Z,20.74
2022-07-30T08:05:12.740Z,20.87
2022-07-30T08:07:55.140Z,20.95
2022-07-30T08:10:45.286Z,21.06
2022-07-30T08:13:48.849Z,21.02
2022-07-30T08:16:56.561Z,20.95
2022-07-30T08:19:58.723Z,20.88
2022-07-30T08:22:30.366Z,20.70
2022-07-30T08:25:05.989Z,20.72
2022-07-30T08:27:38.809Z,20.81
2022-07-30T08:30:12.140Z,20.88
2022-07-30T08:32:43.982Z,20.91
2022-07-30T08:35:15.622Z,20.94
2022-07-30T08:37:47.331Z,20.96
2022-07-30T08:40:21.711Z,21.02
2022-07-30T08:43:05.325Z,21.04
2022-07-30T08:45:37.572Z,21.07
2022-07-30T08:48:23.567Z,21.18
2022-07-30T08:51:04.753Z,21.26
2022-07-30T08:53:40.276Z,21.36
2022-07-30T08:56:13.316Z,21.48
2022-07-30T08:58:45.777Z,21.61
2022-07-30T09:01:17.404Z,21.70
2022-07-30T09:03:49.018Z,21.76
2022-07-30T09:06:20.715Z,21.73
2022-07-30T09:08:55.774Z,21.79
2022-07-30T09:11:27.418Z,21.92
2022-07-30T09:14:11.611Z,21.98
2022-07-30T09:16:44.334Z,22.11
2022-07-30T09:19:24.137Z,22.35
2022-07-30T09:22:02.457Z,22.57
2022-07-30T09:25:09.764Z,23.02
2022-07-30T09:28:16.347Z,23.37
2022-07-30T09:31:08.483Z,23.54
2022-07-30T09:33:58.805Z,23.79
2022-07-30T09:37:16.643Z,23.94
2022-07-30T09:40:20.542Z,23.88
2022-07-30T09:43:22.289Z,23.98
2022-07-30T09:46:01.753Z,24.12
2022-07-30T09:48:33.585Z,24.25
2022-07-30T09:51:15.690Z,24.38
2022-07-30T09:54:00.192Z,24.52
2022-07-30T09:56:34.709Z,24.59
2022-07-30T09:59:07.726Z,24.69
2022-07-30T10:02:00.969Z,24.77
2022-07-30T10:05:14.523Z,24.61
2022-07-30T10:07:52.456Z,24.47
2022-07-30T10:10:30.035Z,24.41
2022-07-30T10:13:07.395Z,24.41
2022-07-30T10:15:39.309Z,24.41
2022-07-30T10:18:14.435Z,24.36
2022-07-30T10:20:55.652Z,24.20
2022-07-30T10:23:46.474Z,24.00
2022-07-30T10:26:41.024Z,23.95
2022-07-30T10:29:42.980Z,23.99
2022-07-30T10:32:14.806Z,24.01
2022-07-30T10:34:49.689Z,23.97
2022-07-30T10:37:23.674Z,24.00
2022-07-30T10:40:03.171Z,23.80
2022-07-30T10:43:31.800Z,23.75
2022-07-30T10:46:21.931Z,23.74
2022-07-30T10:49:11.697Z,23.67
2022-07-30T10:51:57.566Z,23.59
2022-07-30T10:54:40.229Z,23.62
2022-07-30T10:57:31.902Z,23.59
2022-07-30T11:00:04.504Z,23.54
2022-07-30T11:02:36.754Z,23.51
2022-07-30T11:05:18.554Z,23.44
2022-07-30T11:08:42.686Z,23.44
2022-07-30T11:12:15.730Z,23.31
2022-07-30T11:14:15.442Z,23.44
2022-07-30T11:16:51.334Z,23.53
2022-07-30T11:19:53.120Z,23.65
2022-07-30T11:22:40.531Z,23.65
2022-07-30T11:25:49.945Z,23.64
2022-07-30T11:28:38.639Z,23.69
2022-07-30T11:31:56.273Z,23.60
2022-07-30T11:34:26.465Z,23.44
2022-07-30T11:37:18.056Z,23.48
2022-07-30T11:39:54.223Z,23.51
2022-07-30T11:42:31.543Z,23.61
2022-07-30T11:45:19.917Z,23.74
2022-07-30T11:47:57.143Z,23.77
2022-07-30T11:50:34.271Z,23.82
2022-07-30T11:53:10.775Z,23.89
2022-07-30T11:55:45.810Z,23.88
2022-07-30T11:58:38.236Z,24.08
2022-07-30T12:01:15.317Z,24.29
2022-07-30T12:03:47.680Z,24.30
2022-07-30T12:06:23.393Z,24.23
2022-07-30T12:08:58.712Z,24.01
2022-07-30T12:11:35.226Z,23.79
2022-07-30T12:14:06.963Z,23.81
2022-07-30T12:16:41.065Z,23.65
2022-07-30T12:19:13.992Z,23.55
2022-07-30T12:21:49.567Z,23.52
2022-07-30T12:24:26.635Z,23.62
2022-07-30T12:27:08.304Z,23.62
2022-07-30T12:29:43.014Z,23.54
2022-07-30T12:32:15.204Z,23.53
2022-07-30T12:34:56.229Z,23.42
2022-07-30T12:37:28.201Z,23.49
2022-07-30T12:40:15.173Z,23.46
2022-07-30T12:42:53.915Z,23.54
2022-07-30T12:45:28.397Z,23.74
2022-07-30T12:48:00.156Z,23.76
2022-07-30T12:50:35.248Z,23.88
2022-07-30T12:53:08.439Z,23.98
2022-07-30T12:55:42.654Z,24.00
2022-07-30T12:58:14.517Z,24.07
2022-07-30T13:00:51.108Z,24.04
2022-07-30T13:03:27.913Z,24.10
2022-07-30T13:06:00.440Z,24.21
2022-07-30T13:08:58.210Z,24.35
2022-07-30T13:11:49.042Z,24.34
2022-07-30T13:14:26.718Z,24.43
2022-07-30T13:16:58.892Z,24.34
2022-07-30T13:19:30.786Z,24.22
2022-07-30T13:22:02.360Z,24.23
2022-07-30T13:24:34.166Z,24.31
2022-07-30T13:27:06.049Z,24.29
2022-07-30T13:29:37.918Z,24.18
2022-07-30T13:32:09.991Z,24.29
2022-07-30T13:34:42.067Z,24.30
2022-07-30T13:37:13.677Z,24.51
2022-07-30T13:39:45.290Z,24.59
2022-07-30T13:42:16.859Z,24.55
2022-07-30T13:44:48.496Z,24.85
2022-07-30T13:47:20.121Z,25.14
2022-07-30T13:49:51.771Z,25.36
2022-07-30T13:52:26.015Z,25.40
2022-07-30T13:54:57.942Z,25.23
2022-07-30T13:57:29.576Z,24.96
2022-07-30T14:00:01.196Z,24.72
2022-07-30T14:02:36.226Z,24.80
2022-07-30T14:05:08.731Z,24.87
2022-07-30T14:07:41.002Z,24.69
2022-07-30T14:10:12.755Z,24.49
2022-07-30T14:12:47.142Z,24.33
2022-07-30T14:15:18.765Z,24.19
2022-07-30T14:17:56.059Z,24.26
2022-07-30T14:20:29.322Z,24.26
2022-07-30T14:23:00.952Z,24.23
2022-07-30T14:25:32.790Z,24.00
2022-07-30T14:28:05.045Z,23.90
2022-07-30T14:30:37.477Z,23.74
2022-07-30T14:33:09.285Z,23.64
2022-07-30T14:35:40.993Z,23.59
2022-07-30T14:38:12.650Z,23.51
2022-07-30T14:40:47.313Z,23.40
2022-07-30T14:43:21.941Z,23.41
2022-07-30T14:45:53.627Z,23.51
2022-07-30T14:48:26.234Z,23.39
2022-07-30T14:51:14.322Z,23.33
2022-07-30T14:53:48.031Z,23.26
2022-07-30T14:56:19.719Z,23.29
2022-07-30T14:58:51.503Z,23.18
2022-07-30T15:01:23.199Z,23.14
2022-07-30T15:03:54.830Z,23.16
2022-07-30T15:06:26.869Z,23.18
2022-07-30T15:08:58.441Z,23.08
2022-07-30T15:11:44.775Z,22.82
2022-07-30T15:14:21.775Z,22.76
2022-07-30T15:17:02.054Z,22.83
2022-07-30T15:19:35.749Z,22.66
2022-07-30T15:22:07.490Z,22.35
2022-07-30T15:24:39.240Z,22.26
2022-07-30T15:27:10.896Z,22.08
2022-07-30T15:29:42.826Z,21.94
2022-07-30T15:32:15.916Z,21.89
2022-07-30T15:34:47.508Z,21.87
2022-07-30T15:37:19.186Z,21.84
2022-07-30T15:39:51.858Z,21.83
2022-07-30T15:42:27.250Z,21.80
2022-07-30T15:45:16.574Z,21.72
2022-07-30T15:47:48.812Z,21.63
2022-07-30T15:50:20.461Z,21.55
2022-07-30T15:52:52.151Z,21.47
2022-07-30T15:55:24.061Z,21.49
2022-07-30T15:57:58.518Z,21.43
2022-07-30T16:00:30.424Z,21.38
2022-07-30T16:03:03.129Z,21.35
2022-07-30T16:05:52.449Z,21.32
2022-07-30T16:08:24.570Z,21.26
2022-07-30T16:10:56.305Z,21.13
2022-07-30T16:13:27.946Z,21.30
2022-07-30T16:15:59.651Z,21.36
2022-07-30T16:18:32.331Z,21.39
2022-07-30T16:21:03.973Z,21.30
2022-07-30T16:23:37.006Z,21.21
2022-07-30T16:26:11.887Z,21.12
2022-07-30T16:28:43.800Z,21.04
2022-07-30T16:31:15.487Z,21.10
2022-07-30T16:33:47.383Z,21.09
2022-07-30T16:36:19.350Z,21.06
2022-07-30T16:38:51.066Z,21.00
2022-07-30T16:41:23.018Z,20.97
2022-07-30T16:43:54.703Z,20.96
2022-07-30T16:46:26.973Z,20.95
2022-07-30T16:48:58.662Z,20.91
2022-07-30T16:51:30.942Z,20.78
2022-07-30T16:54:03.259Z,20.71
2022-07-30T16:56:34.858Z,20.72
2022-07-30T16:59:09.489Z,20.72
2022-07-30T17:01:43.570Z,20.70
2022-07-30T17:04:15.408Z,20.60
2022-07-30T17:06:47.115Z,20.49
2022-07-30T17:09:18.831Z,20.40
2022-07-30T17:11:52.558Z,20.34
2022-07-30T17:14:24.294Z,20.27
2022-07-30T17:16:55.859Z,20.27
2022-07-30T17:19:27.567Z,20.27
2022-07-30T17:21:59.234Z,20.27
2022-07-30T17:24:30.868Z,20.30
2022-07-30T17:27:02.474Z,20.36
2022-07-30T17:29:34.146Z,20.38
2022-07-30T17:32:21.333Z,20.20
2022-07-30T17:34:54.868Z,20.01
2022-07-30T17:37:26.905Z,20.00
2022-07-30T17:40:27.312Z,20.01
2022-07-30T17:42:50.661Z,19.94
2022-07-30T17:45:22.297Z,19.94
2022-07-30T17:47:53.873Z,20.01
2022-07-30T17:50:25.559Z,20.03
2022-07-30T17:52:57.147Z,20.01
2022-07-30T17:55:29.417Z,19.99
2022-07-30T17:58:02.470Z,19.97
2022-07-30T18:00:35.342Z,19.97
2022-07-30T18:03:07.157Z,19.96
2022-07-30T18:05:38.922Z,19.97
2022-07-30T18:08:10.505Z,20.02
2022-07-30T18:10:42.671Z,20.06
2022-07-30T18:13:26.190Z,19.99
2022-07-30T18:15:58.684Z,19.99
2022-07-30T18:18:30.314Z,20.00
2022-07-30T18:21:02.155Z,19.99
2022-07-30T18:23:34.851Z,19.95
2022-07-30T18:26:06.823Z,19.95
2022-07-30T18:28:38.472Z,19.95
2022-07-30T18:31:10.080Z,19.88
2022-07-30T18:33:41.731Z,19.91
2022-07-30T18:36:13.388Z,19.98
2022-07-30T18:38:49.608Z,20.06
2022-07-30T18:41:23.688Z,20.09
2022-07-30T18:43:55.424Z,20.09
2022-07-30T18:46:27.101Z,20.05
2022-07-30T18:49:06.987Z,20.00
2022-07-30T18:51:53.988Z,19.96
2022-07-30T18:54:28.190Z,19.89
2022-07-30T18:56:59.875Z,19.86
2022-07-30T18:59:32.018Z,19.90
2022-07-30T19:02:04.742Z,19.91
2022-07-30T19:04:38.043Z,19.98
2022-07-30T19:07:09.680Z,20.02
2022-07-30T19:09:42.939Z,19.96
2022-07-30T19:12:14.770Z,19.95
2022-07-30T19:14:46.395Z,19.93
2022-07-30T19:17:18.059Z,19.89
2022-07-30T19:19:51.785Z,19.92
2022-07-30T19:22:29.880Z,19.96
2022-07-30T19:25:01.793Z,20.00
2022-07-30T19:27:34.318Z,19.96
2022-07-30T19:30:06.508Z,19.84
2022-07-30T19:32:38.156Z,19.82
2022-07-30T19:35:13.471Z,19.74
2022-07-30T19:37:46.939Z,19.73
2022-07-30T19:40:18.867Z,19.73
2022-07-30T19:42:55.672Z,19.71
2022-07-30T19:45:47.465Z,19.58
2022-07-30T19:48:29.496Z,19.51
2022-07-30T19:51:04.583Z,19.49
2022-07-30T19:53:36.301Z,19.49
2022-07-30T19:56:10.806Z,19.51
2022-07-30T19:58:43.051Z,19.49
2022-07-30T20:01:15.758Z,19.42
2022-07-30T20:03:47.828Z,19.40
2022-07-30T20:06:19.539Z,19.33
2022-07-30T20:08:52.493Z,19.28
2022-07-30T20:11:36.044Z,19.28
2022-07-30T20:14:08.329Z,19.27
2022-07-30T20:16:40.398Z,19.30
2022-07-30T20:19:15.623Z,19.25
2022-07-30T20:21:56.361Z,19.22
2022-07-30T20:24:29.092Z,19.22
2022-07-30T20:27:01.764Z,19.20
2022-07-30T20:29:53.432Z,19.21
2022-07-30T20:32:25.809Z,19.21
2022-07-30T20:34:57.568Z,19.21
2022-07-30T20:37:32.012Z,19.13
2022-07-30T20:40:12.203Z,19.00
2022-07-30T20:42:44.007Z,18.97
2022-07-30T20:45:16.293Z,18.95
2022-07-30T20:47:48.797Z,18.94
2022-07-30T20:50:30.934Z,18.98
2022-07-30T20:53:03.093Z,19.01
2022-07-30T20:55:34.906Z,19.01
2022-07-30T20:58:16.690Z,18.96
2022-07-30T21:00:59.989Z,18.88
2022-07-30T21:03:35.974Z,18.74
2022-07-30T21:06:07.669Z,18.69
2022-07-30T21:08:39.259Z,18.68
2022-07-30T21:11:12.568Z,18.67
2022-07-30T21:13:44.415Z,18.67
2022-07-30T21:16:16.906Z,18.67
2022-07-30T21:18:50.147Z,18.69
2022-07-30T21:21:30.634Z,18.60
2022-07-30T21:24:19.997Z,18.54
2022-07-30T21:26:51.997Z,18.54
2022-07-30T21:29:27.557Z,18.56
2022-07-30T21:32:03.204Z,18.59
2022-07-30T21:34:42.016Z,18.53
2022-07-30T21:37:15.761Z,18.54
2022-07-30T21:39:47.562Z,18.53
2022-07-30T21:42:25.924Z,18.56
2022-07-30T21:45:02.036Z,18.48
2022-07-30T21:47:34.826Z,18.50
2022-07-30T21:50:08.140Z,18.53
2022-07-30T21:52:40.700Z,18.54
2022-07-30T21:55:13.274Z,18.58
2022-07-30T21:57:46.286Z,18.50
2022-07-30T22:00:22.360Z,18.51
2022-07-30T22:02:54.256Z,18.57
2022-07-30T22:05:39.037Z,18.58
2022-07-30T22:08:13.426Z,18.52
2022-07-30T22:10:47.637Z,18.51
2022-07-30T22:13:23.585Z,18.53
2022-07-30T22:15:58.234Z,18.54
2022-07-30T22:18:30.007Z,18.54
2022-07-30T22:21:01.805Z,18.51
2022-07-30T22:23:33.426Z,18.54
2022-07-30T22:26:05.138Z,18.56
2022-07-30T22:28:37.866Z,18.56
2022-07-30T22:31:14.150Z,18.57
2022-07-30T22:33:47.846Z,18.57
2022-07-30T22:36:24.694Z,18.54
2022-07-30T22:38:58.827Z,18.55
2022-07-30T22:41:30.951Z,18.54
2022-07-30T22:44:02.615Z,18.47
2022-07-30T22:46:39.804Z,18.39
2022-07-30T22:49:24.058Z,18.37
2022-07-30T22:52:09.444Z,18.37
2022-07-30T22:54:42.388Z,18.34
2022-07-30T22:57:15.095Z,18.35
2022-07-30T23:00:00.030Z,18.27
2022-07-30T23:02:32.201Z,18.14
2022-07-30T23:05:04.715Z,18.13
2022-07-30T23:07:40.007Z,18.13
2022-07-30T23:10:18.147Z,18.10
2022-07-30T23:12:51.684Z,18.10
2022-07-30T23:15:23.764Z,18.11
2022-07-30T23:17:59.370Z,18.09
2022-07-30T23:20:31.984Z,18.05
2022-07-30T23:23:06.558Z,17.94
2022-07-30T23:25:39.284Z,17.89
2022-07-30T23:28:12.586Z,17.88
2022-07-30T23:30:44.619Z,17.88
2022-07-30T23:33:19.343Z,17.87
2022-07-30T23:35:51.025Z,17.87
2022-07-30T23:38:23.402Z,17.88
2022-07-30T23:40:55.049Z,17.86
2022-07-30T23:43:27.194Z,17.82
2022-07-30T23:45:58.868Z,17.79
2022-07-30T23:48:31.605Z,17.76
2022-07-30T23:51:03.302Z,17.74
2022-07-30T23:53:34.975Z,17.76
2022-07-30T23:56:15.068Z,17.78
2022-07-30T23:58:46.745Z,17.77
